Time;durP1;ratioP1;P1;durP2;ratioP2;P2;SDS_P1;SDS_P2;PMS_P1;PMS_P2;Temp;Humidity;BMP_temperature;BMP_pressure;BME280_temperature;BME280_humidity;BME280_pressure;Samples;Min_cycle;Max_cycle;Signal;HPM_P1;HPM_P2
2022/02/24 00:00:08;;;;;;;9.82;5.78;;;128.80;2252.80;;;;;;5027604;28;20029;-62
2022/02/24 00:02:34;;;;;;;11.35;5.72;;;;;;;;;;5028086;28;20048;-64
2022/02/24 00:04:59;;;;;;;8.68;5.05;;;128.90;2252.80;;;;;;5027376;28;20030;-63
2022/02/24 00:07:25;;;;;;;18.40;7.60;;;128.80;2252.80;;;;;;5027813;28;20057;-63
2022/02/24 00:09:51;;;;;;;10.77;6.30;;;128.90;2252.80;;;;;;5030965;28;20549;-64
2022/02/24 00:12:17;;;;;;;10.20;5.68;;;128.70;2252.80;;;;;;5031093;28;20048;-65
2022/02/24 00:14:43;;;;;;;8.43;5.07;;;128.80;2252.80;;;;;;5031381;28;20475;-62
2022/02/24 00:17:09;;;;;;;13.63;6.03;;;128.80;2252.80;;;;;;5031055;28;20026;-63
2022/02/24 00:19:35;;;;;;;11.35;5.70;;;128.70;2252.80;;;;;;5031238;28;20037;-63
2022/02/24 00:22:01;;;;;;;11.98;6.20;;;;;;;;;;5031081;28;20032;-64
2022/02/24 00:24:27;;;;;;;8.80;4.78;;;;;;;;;;5030974;28;20022;-62
2022/02/24 00:26:53;;;;;;;13.68;6.63;;;;;;;;;;5030836;28;20045;-64
2022/02/24 00:29:19;;;;;;;12.20;6.38;;;;;;;;;;5030977;28;20029;-63
2022/02/24 00:31:45;;;;;;;11.35;6.75;;;;;;;;;;5032619;28;20029;-58
2022/02/24 00:34:12;;;;;;;14.05;6.40;;;;;;;;;;5041837;28;20022;-62
2022/02/24 00:36:38;;;;;;;11.43;6.50;;;;;;;;;;5039837;28;20116;-57
2022/02/24 00:39:04;;;;;;;10.60;6.25;;;;;;;;;;5041611;28;20079;-61
2022/02/24 00:41:30;;;;;;;16.05;6.68;;;;;;;;;;5041177;28;20492;-61
2022/02/24 00:43:56;;;;;;;15.45;6.03;;;;;;;;;;5040126;28;20021;-64
2022/02/24 00:46:22;;;;;;;10.95;5.75;;;;;;;;;;5041809;28;20017;-63
2022/02/24 00:48:48;;;;;;;11.48;5.40;;;;;;;;;;5040786;28;20056;-63
2022/02/24 00:51:14;;;;;;;13.23;5.13;;;;;;;;;;5040054;28;20041;-62
2022/02/24 00:53:41;;;;;;;10.20;4.38;;;;;;;;;;5041649;28;20036;-63
2022/02/24 00:56:11;;;;;;;8.45;4.88;;;;;;;;;;5040589;28;20030;-62
2022/02/24 00:58:38;;;;;;;8.90;5.03;;;;;;;;;;5039885;28;20076;-59
2022/02/24 01:01:04;;;;;;;8.90;4.35;;;;;;;;;;5041268;28;20028;-59
2022/02/24 01:03:30;;;;;;;10.05;5.30;;;;;;;;;;5032029;28;20049;-64
2022/02/24 01:05:56;;;;;;;16.17;5.30;;;;;;;;;;5031817;28;20049;-64
2022/02/24 01:08:22;;;;;;;12.43;5.55;;;;;;;;;;5032169;28;20048;-63
2022/02/24 01:10:48;;;;;;;8.70;5.07;;;;;;;;;;5031461;28;20063;-63
2022/02/24 01:13:14;;;;;;;12.80;4.68;;;128.40;2252.80;;;;;;5032095;28;20089;-62
2022/02/24 01:15:42;;;;;;;8.82;4.30;;;;;;;;;;5031629;28;20029;-61
2022/02/24 01:18:08;;;;;;;12.30;5.60;;;;;;;;;;5031843;28;20037;-62
2022/02/24 01:20:35;;;;;;;12.98;5.50;;;;;;;;;;5030843;28;20080;-63
2022/02/24 01:23:00;;;;;;;10.30;4.35;;;128.40;2252.80;;;;;;5031616;28;20026;-63
2022/02/24 01:25:26;;;;;;;9.38;5.50;;;;;;;;;;5031684;28;20494;-63
2022/02/24 01:27:53;;;;;;;8.07;4.03;;;;;;;;;;5031903;28;20071;-60
2022/02/24 01:30:19;;;;;;;7.75;5.00;;;;;;;;;;5031546;28;20395;-62
2022/02/24 01:32:45;;;;;;;11.05;5.57;;;;;;;;;;5031686;28;20025;-62
2022/02/24 01:35:12;;;;;;;10.10;4.85;;;;;;;;;;5031080;28;20037;-63
2022/02/24 01:37:38;;;;;;;9.82;4.05;;;;;;;;;;5031316;28;20061;-64
2022/02/24 01:40:05;;;;;;;8.15;3.67;;;128.00;2252.80;;;;;;5031279;28;20439;-61
2022/02/24 01:42:31;;;;;;;11.32;5.55;;;103.30;2227.20;;;;;;5031424;28;20109;-61
2022/02/24 01:44:58;;;;;;;13.18;9.60;;;103.30;2227.20;;;;;;5031172;28;20057;-61
2022/02/24 01:47:24;;;;;;;11.82;5.32;;;103.30;2227.20;;;;;;5031391;28;20033;-62
2022/02/24 01:49:50;;;;;;;11.25;4.25;;;103.30;2227.20;;;;;;5031093;28;20042;-62
2022/02/24 01:52:16;;;;;;;7.30;4.07;;;103.30;2227.20;;;;;;5031345;28;20483;-61
2022/02/24 01:54:42;;;;;;;11.52;4.28;;;103.20;2227.20;;;;;;5030919;28;20395;-62
2022/02/24 01:57:09;;;;;;;7.10;3.90;;;103.30;2227.20;;;;;;5031023;28;20029;-62
2022/02/24 01:59:35;;;;;;;7.40;3.80;;;103.20;2227.20;;;;;;5031233;28;20021;-60
2022/02/24 02:02:01;;;;;;;9.40;3.92;;;103.30;2227.20;;;;;;5030766;28;20448;-62
2022/02/24 02:04:27;;;;;;;10.02;4.45;;;103.20;2227.20;;;;;;5030792;28;20029;-59
2022/02/24 02:06:55;;;;;;;8.35;4.03;;;103.20;2227.20;;;;;;5030743;28;20037;-62
2022/02/24 02:09:21;;;;;;;8.98;4.53;;;103.20;2227.20;;;;;;5030788;28;20048;-63
2022/02/24 02:11:47;;;;;;;8.13;4.68;;;103.20;2227.20;;;;;;5030471;28;20551;-62
2022/02/24 02:14:13;;;;;;;11.02;7.63;;;103.10;2227.20;;;;;;5030862;28;20033;-62
2022/02/24 02:16:47;;;;;;;13.13;7.30;;;103.00;2227.20;;;;;;5030725;28;20033;-63
2022/02/24 02:19:12;;;;;;;;;;;103.00;2227.20;;;;;;5031096;28;20534;-62
2022/02/24 02:21:38;;;;;;;9.90;4.70;;;103.10;2227.20;;;;;;5030449;28;19905;-62
2022/02/24 02:24:05;;;;;;;6.35;3.45;;;103.00;2227.20;;;;;;5030550;28;20033;-60
2022/02/24 02:26:33;;;;;;;9.50;4.35;;;103.00;2227.20;;;;;;5030405;28;20508;-62
2022/02/24 02:29:00;;;;;;;14.75;5.15;;;102.80;2227.20;;;;;;5030505;28;20081;-62
2022/02/24 02:31:26;;;;;;;9.82;3.75;;;102.80;2227.20;;;;;;5030228;28;20479;-62
2022/02/24 02:34:10;;;;;;;10.90;5.13;;;102.80;2227.20;;;;;;5030722;28;20022;-62
2022/02/24 02:36:38;;;;;;;12.20;4.55;;;102.90;2227.20;;;;;;5030453;28;20033;-63
2022/02/24 02:39:05;;;;;;;10.80;4.65;;;102.90;2227.20;;;;;;5030414;28;20116;-61
2022/02/24 02:41:33;;;;;;;7.82;4.07;;;102.90;2227.20;;;;;;5030269;28;20060;-63
2022/02/24 02:44:00;;;;;;;10.80;3.97;;;103.00;2227.20;;;;;;5030304;28;20562;-62
2022/02/24 02:46:26;;;;;;;7.60;3.65;;;103.00;2227.20;;;;;;5030554;28;20033;-60
2022/02/24 02:48:52;;;;;;;5.60;3.13;;;103.00;2227.20;;;;;;5030358;28;20021;-63
2022/02/24 02:51:18;;;;;;;15.38;3.70;;;103.00;2227.20;;;;;;5029946;28;20095;-62
2022/02/24 02:53:44;;;;;;;12.45;9.70;;;103.00;2227.20;;;;;;5030339;28;20030;-63
2022/02/24 02:56:10;;;;;;;10.27;3.72;;;102.90;2227.20;;;;;;5031412;28;20056;-62
2022/02/24 02:58:36;;;;;;;10.30;6.30;;;102.80;2227.20;;;;;;5030268;28;20024;-63
2022/02/24 03:01:02;;;;;;;6.22;3.60;;;102.70;2227.20;;;;;;5030178;28;20376;-62
2022/02/24 03:03:28;;;;;;;8.25;4.05;;;102.60;2227.20;;;;;;5029729;28;20465;-62
2022/02/24 03:05:55;;;;;;;9.23;5.57;;;102.60;2227.20;;;;;;5029904;28;20053;-62
2022/02/24 03:08:21;;;;;;;7.22;3.60;;;102.60;2227.20;;;;;;5029999;28;20044;-62
2022/02/24 03:10:48;;;;;;;8.35;4.10;;;102.70;2227.20;;;;;;5030309;28;20933;-63
2022/02/24 03:13:14;;;;;;;11.50;3.70;;;102.70;2227.20;;;;;;5030449;28;20029;-61
2022/02/24 03:15:41;;;;;;;9.95;4.80;;;102.70;2227.20;;;;;;5029882;28;20018;-63
2022/02/24 03:18:07;;;;;;;7.80;4.13;;;102.70;2227.20;;;;;;5030009;28;20084;-63
2022/02/24 03:20:33;;;;;;;12.00;3.88;;;102.70;2227.20;;;;;;5029921;28;20041;-63
2022/02/24 03:23:03;;;;;;;10.80;4.20;;;102.70;2227.20;;;;;;5029630;28;20018;-63
2022/02/24 03:25:30;;;;;;;7.45;4.53;;;102.60;2227.20;;;;;;5029827;28;20021;-63
2022/02/24 03:27:56;;;;;;;8.02;4.18;;;102.50;2227.20;;;;;;5029754;28;20029;-64
2022/02/24 03:30:23;;;;;;;9.93;3.97;;;102.40;2227.20;;;;;;5030031;28;20087;-63
2022/02/24 03:32:49;;;;;;;12.05;4.05;;;102.40;2227.20;;;;;;5029802;28;20033;-62
2022/02/24 03:35:16;;;;;;;6.13;2.83;;;102.50;2227.20;;;;;;5029619;28;20029;-61
2022/02/24 03:37:43;;;;;;;5.10;3.10;;;102.50;2227.20;;;;;;5029762;28;20444;-63
2022/02/24 03:40:10;;;;;;;12.23;3.10;;;102.60;2227.20;;;;;;5029870;28;20026;-64
2022/02/24 03:42:36;;;;;;;9.70;5.25;;;102.60;2227.20;;;;;;5028713;28;20038;-59
2022/02/24 03:45:03;;;;;;;6.03;2.78;;;102.50;2227.20;;;;;;5033579;28;20021;-63
2022/02/24 03:47:29;;;;;;;6.85;3.38;;;102.40;2227.20;;;;;;5033331;28;20033;-63
2022/02/24 03:49:55;;;;;;;6.03;3.10;;;;;;;;;;5033430;28;20021;-61
2022/02/24 03:52:21;;;;;;;7.03;3.08;;;;;;;;;;5033291;28;20167;-64
2022/02/24 03:54:47;;;;;;;6.00;2.83;;;;;;;;;;5033129;28;20045;-62
2022/02/24 03:57:17;;;;;;;8.90;3.30;;;;;;;;;;5033470;28;20273;-63
2022/02/24 03:59:44;;;;;;;6.65;3.38;;;;;;;;;;5033423;28;20022;-63
2022/02/24 04:02:10;;;;;;;7.38;3.35;;;;;;;;;;5033039;28;20021;-63
2022/02/24 04:04:36;;;;;;;29.80;19.40;;;;;;;;;;5032938;28;20582;-64
2022/02/24 04:07:03;;;;;;;10.57;5.38;;;;;;;;;;5032921;28;20049;-63
2022/02/24 04:09:29;;;;;;;8.73;4.28;;;;;;;;;;5032761;28;20053;-61
2022/02/24 04:11:55;;;;;;;12.85;5.45;;;;;;;;;;5032912;28;20476;-63
2022/02/24 04:14:22;;;;;;;8.40;4.85;;;;;;;;;;5033015;28;20067;-63
2022/02/24 04:16:48;;;;;;;7.60;4.22;;;;;;;;;;5032857;28;20415;-63
2022/02/24 04:19:14;;;;;;;4.68;3.65;;;;;;;;;;5032772;28;20025;-64
2022/02/24 04:21:40;;;;;;;9.38;5.35;;;;;;;;;;5032673;28;20025;-65
2022/02/24 04:24:06;;;;;;;8.70;4.88;;;;;;;;;;5032845;28;20021;-63
2022/02/24 04:26:33;;;;;;;10.18;3.65;;;;;;;;;;5032959;28;20074;-63
2022/02/24 04:28:59;;;;;;;6.28;3.65;;;;;;;;;;5032477;28;20029;-63
2022/02/24 04:31:25;;;;;;;9.82;3.53;;;;;;;;;;5032691;28;20032;-63
2022/02/24 04:33:51;;;;;;;7.80;3.42;;;;;;;;;;5032515;28;20021;-63
2022/02/24 04:36:18;;;;;;;7.55;4.68;;;;;;;;;;5032408;28;20029;-62
2022/02/24 04:38:44;;;;;;;11.63;4.13;;;;;;;;;;5032496;28;20038;-62
2022/02/24 04:41:10;;;;;;;15.13;9.20;;;;;;;;;;5032450;28;20033;-63
2022/02/24 04:43:36;;;;;;;10.50;5.43;;;;;;;;;;5032506;28;20032;-63
2022/02/24 04:46:02;;;;;;;13.82;7.88;;;;;;;;;;5032444;28;20036;-63
2022/02/24 04:48:28;;;;;;;25.63;17.38;;;;;;;;;;5032278;28;20053;-63
2022/02/24 04:50:54;;;;;;;27.40;18.35;;;77.50;2227.20;;;;;;5032405;28;20045;-63
2022/02/24 04:53:20;;;;;;;42.20;19.65;;;77.40;2227.20;;;;;;5032162;28;20025;-62
2022/02/24 04:55:46;;;;;;;35.40;17.88;;;77.50;2227.20;;;;;;5032097;28;20352;-63
2022/02/24 04:58:12;;;;;;;44.72;18.15;;;77.50;2227.20;;;;;;5032439;28;20493;-63
2022/02/24 05:00:38;;;;;;;50.50;22.85;;;77.40;2227.20;;;;;;5033356;28;20105;-63
2022/02/24 05:03:04;;;;;;;48.13;23.95;;;77.50;2227.20;;;;;;5052142;28;20394;-62
2022/02/24 05:05:30;;;;;;;43.83;20.30;;;77.30;2227.20;;;;;;5044876;28;20033;-62
2022/02/24 05:07:55;;;;;;;43.65;17.73;;;77.30;2227.20;;;;;;5042360;28;20055;-63
2022/02/24 05:10:21;;;;;;;36.88;17.67;;;77.40;2227.20;;;;;;5051602;28;20535;-61
2022/02/24 05:12:48;;;;;;;52.50;27.70;;;77.50;2227.20;;;;;;5051744;28;20040;-61
2022/02/24 05:15:14;;;;;;;86.05;43.47;;;77.30;2227.20;;;;;;5051974;28;20132;-64
2022/02/24 05:17:40;;;;;;;56.40;30.48;;;77.30;2227.20;;;;;;5051598;28;20172;-63
2022/02/24 05:20:09;;;;;;;39.97;19.50;;;77.30;2227.20;;;;;;5051554;28;20096;-63
2022/02/24 05:22:37;;;;;;;31.02;16.00;;;77.40;2227.20;;;;;;5051667;28;20029;-63
2022/02/24 05:25:04;;;;;;;31.80;18.15;;;77.40;2227.20;;;;;;5051698;28;20035;-62
2022/02/24 05:27:30;;;;;;;46.38;27.25;;;77.60;2227.20;;;;;;5051655;28;20029;-62
2022/02/24 05:29:55;;;;;;;34.00;18.08;;;77.50;2227.20;;;;;;5051668;28;20520;-63
2022/02/24 05:32:21;;;;;;;36.03;16.52;;;77.40;2227.20;;;;;;5051569;28;20036;-63
2022/02/24 05:34:47;;;;;;;17.23;11.00;;;77.40;2227.20;;;;;;5050987;28;20035;-61
2022/02/24 05:37:12;;;;;;;18.30;11.48;;;77.40;2227.20;;;;;;5051367;28;20091;-63
2022/02/24 05:39:38;;;;;;;31.77;17.77;;;77.50;2227.20;;;;;;5051288;28;20079;-64
2022/02/24 05:42:04;;;;;;;30.42;17.90;;;77.60;2227.20;;;;;;5051483;28;20490;-63
2022/02/24 05:44:30;;;;;;;30.15;16.45;;;77.60;2227.20;;;;;;5047135;28;20033;-63
2022/02/24 05:46:55;;;;;;;22.55;10.65;;;77.50;2227.20;;;;;;5051235;28;20462;-65
2022/02/24 05:49:21;;;;;;;27.75;13.73;;;77.40;2227.20;;;;;;5051128;28;20020;-65
2022/02/24 05:51:47;;;;;;;17.67;10.50;;;77.50;2227.20;;;;;;5050994;28;20044;-63
2022/02/24 05:54:12;;;;;;;28.52;13.95;;;77.50;2227.20;;;;;;5051052;28;20415;-64
2022/02/24 05:56:38;;;;;;;58.03;29.13;;;77.60;2227.20;;;;;;5050720;28;20463;-63
2022/02/24 05:59:04;;;;;;;79.97;57.33;;;102.40;2227.20;;;;;;5050973;28;20040;-64
2022/02/24 06:01:30;;;;;;;55.65;33.17;;;102.50;2227.20;;;;;;5050749;28;20422;-64
2022/02/24 06:03:56;;;;;;;41.58;25.77;;;102.60;2227.20;;;;;;5050836;28;20095;-65
2022/02/24 06:06:22;;;;;;;27.30;14.40;;;102.70;2227.20;;;;;;5050206;28;20085;-63
2022/02/24 06:08:48;;;;;;;27.80;15.77;;;102.60;2227.20;;;;;;5050579;28;20487;-63
2022/02/24 06:11:13;;;;;;;22.33;11.63;;;102.70;2227.20;;;;;;5050709;28;20040;-61
2022/02/24 06:13:40;;;;;;;32.90;18.48;;;102.70;2227.20;;;;;;5050459;28;20517;-62
2022/02/24 06:16:07;;;;;;;28.75;16.45;;;102.80;2227.20;;;;;;5050478;28;20028;-62
2022/02/24 06:18:33;;;;;;;25.95;13.27;;;102.80;2227.20;;;;;;5050605;28;20036;-61
2022/02/24 06:21:00;;;;;;;28.83;14.45;;;103.00;2227.20;;;;;;5050244;28;20386;-62
2022/02/24 06:23:26;;;;;;;45.92;24.60;;;103.00;2227.20;;;;;;5050528;28;20448;-62
2022/02/24 06:25:52;;;;;;;20.20;12.27;;;128.30;2252.80;;;;;;5050694;28;20021;-62
2022/02/24 06:28:18;;;;;;;38.88;28.48;;;103.00;2227.20;;;;;;5050259;28;20031;-62
2022/02/24 06:30:43;;;;;;;18.75;8.93;;;103.10;2227.20;;;;;;5050489;28;20037;-62
2022/02/24 06:33:09;;;;;;;27.15;13.40;;;103.10;2227.20;;;;;;5050305;28;20514;-62
2022/02/24 06:35:35;;;;;;;59.17;32.80;;;103.10;2227.20;;;;;;5050212;28;20481;-63
2022/02/24 06:38:02;;;;;;;66.13;39.60;;;103.30;2227.20;;;;;;5050102;28;20045;-62
2022/02/24 06:40:30;;;;;;;80.38;56.78;;;128.10;2252.80;;;;;;5050026;28;20478;-62
2022/02/24 06:42:56;;;;;;;38.42;24.05;;;128.20;2252.80;;;;;;5050216;28;20033;-61
2022/02/24 06:45:22;;;;;;;24.52;16.52;;;128.70;2252.80;;;;;;5050200;28;20029;-62
2022/02/24 06:47:48;;;;;;;34.05;19.10;;;154.10;2252.80;;;;;;5049894;28;20036;-60
2022/02/24 06:50:14;;;;;;;28.02;18.83;;;;;;;;;;5049931;28;20395;-62
2022/02/24 06:52:40;;;;;;;21.38;13.85;;;230.40;2227.20;;;;;;5049730;28;20032;-63
2022/02/24 06:55:07;;;;;;;15.10;9.93;;;231.10;2073.60;;;;;;5049852;28;20025;-66
2022/02/24 06:57:37;;;;;;;15.32;8.88;;;205.70;2150.40;;;;;;5050202;28;20033;-69
2022/02/24 07:00:04;;;;;;;18.00;11.05;;;204.90;2252.80;;;;;;5050020;28;20037;-71
2022/02/24 07:02:30;;;;;;;30.27;12.98;;;179.90;2252.80;;;;;;5049716;28;20503;-63
2022/02/24 07:04:56;;;;;;;18.33;10.05;;;179.40;2252.80;;;;;;5049816;28;20041;-65
2022/02/24 07:07:21;;;;;;;16.00;9.02;;;154.40;2252.80;;;;;;5049709;28;20393;-64
2022/02/24 07:09:47;;;;;;;17.73;9.40;;;154.50;2252.80;;;;;;5049590;28;20032;-66
2022/02/24 07:12:13;;;;;;;14.20;9.13;;;154.50;2252.80;;;;;;5049774;28;20041;-64
2022/02/24 07:14:39;;;;;;;15.38;7.95;;;179.20;2252.80;;;;;;5049565;28;20029;-66
2022/02/24 07:17:04;;;;;;;16.73;8.88;;;179.30;2252.80;;;;;;5049964;28;20048;-65
2022/02/24 07:19:30;;;;;;;17.67;10.65;;;179.30;2252.80;;;;;;5052929;28;20459;-64
2022/02/24 07:21:56;;;;;;;16.20;8.38;;;179.40;2252.80;;;;;;5053885;28;20031;-68
2022/02/24 07:24:22;;;;;;;14.75;8.00;;;179.50;2252.80;;;;;;5054135;28;20029;-66
2022/02/24 07:26:47;;;;;;;14.23;7.57;;;179.60;2252.80;;;;;;5053800;28;20475;-65
2022/02/24 07:29:13;;;;;;;24.70;9.57;;;179.60;2252.80;;;;;;5053942;28;20035;-63
2022/02/24 07:31:39;;;;;;;14.60;8.90;;;179.60;2252.80;;;;;;5053532;28;20040;-66
2022/02/24 07:34:04;;;;;;;45.20;32.35;;;179.80;2252.80;;;;;;5053734;28;20113;-66
2022/02/24 07:36:33;;;;;;;70.45;49.88;;;256.70;2099.20;;;;;;5052078;28;20147;-65
2022/02/24 07:38:59;;;;;;;67.25;46.97;;;282.50;1920.00;;;;;;5053558;28;20033;-68
2022/02/24 07:41:25;;;;;;;57.00;43.20;;;358.50;1715.20;;;;;;5053718;28;20033;-65
2022/02/24 07:43:51;;;;;;;63.40;45.83;;;384.70;1561.60;;;;;;5053720;28;20064;-65
2022/02/24 07:46:17;;;;;;;66.05;49.53;;;435.50;1459.20;;;;;;5053622;28;20472;-66
2022/02/24 07:48:43;;;;;;;71.05;57.58;;;461.20;1382.40;;;;;;5053516;28;20036;-66
2022/02/24 07:51:08;;;;;;;72.22;52.92;;;486.60;1305.60;;;;;;5052983;28;20124;-64
2022/02/24 07:53:34;;;;;;;62.97;51.35;;;512.20;1254.40;;;;;;5053316;28;20148;-62
2022/02/24 07:56:00;;;;;;;59.88;48.03;;;512.90;1228.80;;;;;;5051694;28;20029;-65
2022/02/24 07:58:25;;;;;;;65.82;51.60;;;538.50;1177.60;;;;;;5053458;28;20061;-68
2022/02/24 08:00:51;;;;;;;55.90;47.70;;;538.50;1177.60;;;;;;5053117;28;20029;-63
2022/02/24 08:03:17;;;;;;;77.65;61.47;;;563.60;1177.60;;;;;;5053243;28;20031;-62
2022/02/24 08:05:42;;;;;;;72.13;60.20;;;564.10;1152.00;;;;;;5052898;28;20036;-62
2022/02/24 08:08:08;;;;;;;81.60;65.22;;;589.60;1100.80;;;;;;5052796;28;20065;-61
2022/02/24 08:10:34;;;;;;;161.98;130.80;;;614.60;1075.20;;;;;;5052949;28;20033;-66
2022/02/24 08:13:01;;;;;;;147.35;120.35;;;614.50;1075.20;;;;;;5052819;28;20511;-65
2022/02/24 08:15:39;;;;;;;167.43;143.32;;;614.50;1049.60;;;;;;5053067;28;20520;-64
2022/02/24 08:18:05;;;;;;;123.13;104.72;;;614.60;1049.60;;;;;;5052834;28;20036;-69
2022/02/24 08:20:30;;;;;;;151.23;127.07;;;614.80;1024.00;;;;;;5052544;28;20115;-65
2022/02/24 08:23:01;;;;;;;148.48;132.02;;;614.50;1049.60;;;;;;5052518;28;20053;-68
2022/02/24 08:25:27;;;;;;;132.68;116.72;;;615.00;1024.00;;;;;;5052808;28;20949;-69
2022/02/24 08:27:54;;;;;;;101.95;80.10;;;640.20;998.40;;;;;;5052894;28;20021;-68
2022/02/24 08:30:22;;;;;;;95.88;83.43;;;640.00;972.80;;;;;;5052147;28;20024;-70
2022/02/24 08:32:49;;;;;;;82.38;66.85;;;640.90;947.20;;;;;;5052613;28;20029;-70
2022/02/24 08:35:16;;;;;;;46.30;39.38;;;666.30;947.20;;;;;;5052638;28;20028;-69
2022/02/24 08:37:44;;;;;;;29.58;21.77;;;666.30;921.60;;;;;;5052618;28;20029;-67
2022/02/24 08:40:11;;;;;;;45.72;36.53;;;665.70;921.60;;;;;;5052430;28;20033;-69
2022/02/24 08:42:37;;;;;;;19.70;16.48;;;666.30;921.60;;;;;;5052482;28;20558;-66
2022/02/24 08:45:04;;;;;;;31.35;17.40;;;691.20;870.40;;;;;;5052667;28;20113;-69
2022/02/24 08:47:30;;;;;;;15.13;12.10;;;692.10;844.80;;;;;;5052374;28;20107;-70
2022/02/24 08:49:55;;;;;;;24.95;18.65;;;692.00;870.40;;;;;;5052535;28;20044;-66
2022/02/24 08:52:21;;;;;;;15.10;9.20;;;717.30;844.80;;;;;;5052277;28;20041;-67
2022/02/24 08:54:47;;;;;;;30.42;24.88;;;717.10;819.20;;;;;;5052173;28;20028;-69
2022/02/24 08:57:13;;;;;;;25.58;20.63;;;716.80;844.80;;;;;;5052383;28;20031;-68
2022/02/24 08:59:39;;;;;;;23.95;16.88;;;691.80;819.20;;;;;;5051966;28;20471;-68
2022/02/24 09:02:05;;;;;;;25.38;17.85;;;716.90;844.80;;;;;;5052261;28;20025;-67
2022/02/24 09:04:31;;;;;;;22.75;18.50;;;717.50;819.20;;;;;;5051940;28;20028;-69
2022/02/24 09:06:57;;;;;;;25.50;19.45;;;742.50;819.20;;;;;;5051510;28;20045;-66
2022/02/24 09:09:26;;;;;;;29.45;17.83;;;742.60;819.20;;;;;;5051989;28;20040;-71
2022/02/24 09:11:52;;;;;;;21.08;17.17;;;717.40;819.20;;;;;;5051771;28;20525;-70
2022/02/24 09:14:18;;;;;;;36.80;26.92;;;717.40;819.20;;;;;;5051716;28;20028;-66
2022/02/24 09:16:44;;;;;;;24.92;20.65;;;717.60;819.20;;;;;;5051918;28;20419;-70
2022/02/24 09:19:11;;;;;;;20.90;16.38;;;717.60;793.60;;;;;;5051376;28;20033;-68
2022/02/24 09:21:38;;;;;;;22.67;19.05;;;716.80;819.20;;;;;;5051492;28;20031;-69
2022/02/24 09:24:04;;;;;;;21.23;18.77;;;691.80;819.20;;;;;;5051659;28;20219;-68
2022/02/24 09:26:30;;;;;;;31.30;26.23;;;691.70;819.20;;;;;;5050278;28;20078;-70
2022/02/24 09:28:56;;;;;;;19.08;17.08;;;691.30;819.20;;;;;;5039352;28;20108;-69
2022/02/24 09:31:23;;;;;;;12.90;10.55;;;665.80;870.40;;;;;;5031546;28;20037;-70
2022/02/24 09:33:48;;;;;;;18.70;11.55;;;615.20;844.80;;;;;;5031548;28;20419;-70
2022/02/24 09:36:14;;;;;;;14.60;10.90;;;589.70;896.00;;;;;;5031325;28;20113;-70
2022/02/24 09:38:40;;;;;;;18.05;11.05;;;563.70;896.00;;;;;;5031308;28;20476;-70
2022/02/24 09:41:08;;;;;;;12.27;7.78;;;538.00;947.20;;;;;;5030419;28;20025;-70
2022/02/24 09:43:36;;;;;;;12.05;7.05;;;512.00;921.60;;;;;;5031515;28;20032;-64
2022/02/24 09:46:08;;;;;;;20.52;9.52;;;486.70;947.20;;;;;;5031410;28;20017;-70
2022/02/24 09:48:37;;;;;;;14.27;12.75;;;461.50;998.40;;;;;;5031319;28;20029;-68
2022/02/24 09:51:06;;;;;;;9.02;4.78;;;460.90;972.80;;;;;;5031114;28;20479;-72
2022/02/24 09:53:34;;;;;;;12.00;3.65;;;436.00;947.20;;;;;;5030903;28;20025;-67
2022/02/24 09:56:02;;;;;;;15.35;13.18;;;435.70;998.40;;;;;;5031025;28;20081;-66
2022/02/24 09:58:28;;;;;;;11.85;7.00;;;435.40;998.40;;;;;;5030881;28;20029;-66
2022/02/24 10:00:59;;;;;;;16.83;10.95;;;410.40;1024.00;;;;;;5031239;28;20026;-65
2022/02/24 10:03:31;;;;;;;14.75;9.43;;;410.10;1075.20;;;;;;5031101;28;20029;-63
2022/02/24 10:05:58;;;;;;;19.20;10.85;;;410.00;1075.20;;;;;;5030907;28;20423;-67
2022/02/24 10:08:32;;;;;;;15.55;9.70;;;409.80;1152.00;;;;;;5030887;28;20526;-66
2022/02/24 10:11:01;;;;;;;16.98;10.55;;;409.90;1126.40;;;;;;5030732;28;20443;-67
2022/02/24 10:13:28;;;;;;;14.50;11.65;;;409.80;1126.40;;;;;;5030667;28;20029;-63
2022/02/24 10:16:01;;;;;;;16.70;11.65;;;409.90;1177.60;;;;;;5029870;28;20416;-67
2022/02/24 10:18:33;;;;;;;13.30;9.15;;;409.90;1152.00;;;;;;5030811;28;20111;-68
2022/02/24 10:21:03;;;;;;;16.93;10.63;;;384.70;1100.80;;;;;;5030336;28;20033;-70
2022/02/24 10:23:39;;;;;;;18.20;12.48;;;384.50;1126.40;;;;;;5030390;28;20290;-65
2022/02/24 10:26:09;;;;;;;19.67;13.27;;;384.50;1100.80;;;;;;5030750;28;20033;-68
2022/02/24 10:28:48;;;;;;;24.70;13.00;;;384.50;1126.40;;;;;;5030581;28;20021;-68
2022/02/24 10:31:23;;;;;;;40.25;25.80;;;384.20;1126.40;;;;;;5030412;28;20037;-67
2022/02/24 10:33:53;;;;;;;26.23;12.27;;;384.20;1126.40;;;;;;5030541;28;20025;-65
2022/02/24 10:36:24;;;;;;;17.65;10.20;;;359.10;1152.00;;;;;;5030350;28;20045;-67
2022/02/24 10:39:17;;;;;;;14.85;9.52;;;358.90;1152.00;;;;;;5030277;28;20035;-67
2022/02/24 10:41:45;;;;;;;17.08;12.13;;;358.90;1177.60;;;;;;5030426;28;20057;-66
2022/02/24 10:44:21;;;;;;;21.38;13.45;;;359.00;1152.00;;;;;;5030201;28;20025;-65
2022/02/24 10:46:53;;;;;;;21.25;12.75;;;359.00;1152.00;;;;;;5030493;28;20080;-63
2022/02/24 10:49:35;;;;;;;25.67;12.82;;;358.60;1177.60;;;;;;5030080;28;20045;-68
2022/02/24 10:52:15;;;;;;;17.15;9.80;;;358.80;1177.60;;;;;;5029899;28;20034;-67
2022/02/24 10:55:05;;;;;;;20.42;9.82;;;359.00;1228.80;;;;;;5030011;28;20037;-67
2022/02/24 10:57:31;;;;;;;27.77;16.90;;;358.90;1152.00;;;;;;5029905;28;20514;-62
2022/02/24 10:59:58;;;;;;;9.98;7.55;;;358.90;1152.00;;;;;;5030145;28;20025;-68
2022/02/24 11:02:26;;;;;;;17.73;12.82;;;359.00;1228.80;;;;;;5030257;28;20060;-65
2022/02/24 11:04:52;;;;;;;23.65;15.43;;;358.90;1177.60;;;;;;5029815;28;20112;-64
2022/02/24 11:07:18;;;;;;;25.55;16.00;;;358.80;1177.60;;;;;;5029746;28;20057;-65
2022/02/24 11:09:45;;;;;;;23.90;14.02;;;358.80;1203.20;;;;;;5029960;28;20383;-68
2022/02/24 11:12:13;;;;;;;20.20;12.98;;;358.80;1203.20;;;;;;5029712;28;20034;-66
2022/02/24 12:29:37;;;;;;;14.38;9.00;;;307.80;1126.40;;;;;;5087259;27;20410;-63
2022/02/24 12:32:04;;;;;;;16.85;11.45;;;333.60;1126.40;;;;;;5087478;28;20024;-63
2022/02/24 12:34:31;;;;;;;14.05;7.53;;;333.20;1177.60;;;;;;5087239;28;20420;-66
2022/02/24 12:37:11;;;;;;;21.27;14.02;;;333.20;1152.00;;;;;;5087121;28;20462;-67
2022/02/24 12:39:37;;;;;;;12.15;8.27;;;333.20;1177.60;;;;;;5087155;28;20067;-61
2022/02/24 12:42:05;;;;;;;36.85;24.25;;;333.40;1152.00;;;;;;5087436;28;20417;-62
2022/02/24 12:44:32;;;;;;;19.92;11.57;;;333.10;1152.00;;;;;;5087258;28;20025;-63
2022/02/24 12:46:58;;;;;;;24.30;14.07;;;333.40;1152.00;;;;;;5087066;28;20024;-62
2022/02/24 12:49:24;;;;;;;22.23;12.52;;;333.30;1152.00;;;;;;5086969;28;20017;-64
2022/02/24 12:51:56;;;;;;;16.73;8.73;;;333.70;1177.60;;;;;;5085841;28;20097;-64
2022/02/24 12:54:25;;;;;;;11.32;6.03;;;333.50;1126.40;;;;;;5087113;28;20017;-63
2022/02/24 12:56:50;;;;;;;14.68;6.32;;;333.20;1126.40;;;;;;5086950;28;20024;-64
2022/02/24 12:59:18;;;;;;;20.65;11.02;;;333.40;1177.60;;;;;;5086836;28;20036;-63
2022/02/24 13:01:47;;;;;;;16.38;9.13;;;333.30;1152.00;;;;;;5087032;28;20031;-62
2022/02/24 13:04:16;;;;;;;26.23;6.30;;;333.40;1177.60;;;;;;5086952;28;20078;-64
2022/02/24 13:06:44;;;;;;;12.70;7.60;;;333.60;1203.20;;;;;;5086895;28;20020;-66
2022/02/24 13:12:15;;;;;;;19.85;10.63;;;333.30;1152.00;;;;;;5086874;28;20042;-62
2022/02/24 13:14:46;;;;;;;18.70;7.68;;;333.50;1152.00;;;;;;5086702;28;20039;-66
2022/02/24 13:17:24;;;;;;;28.63;16.63;;;333.40;1126.40;;;;;;5086665;28;20036;-69
2022/02/24 13:19:50;;;;;;;28.30;13.88;;;333.40;1152.00;;;;;;5086527;28;20115;-63
2022/02/24 13:22:16;;;;;;;27.13;14.20;;;333.60;1126.40;;;;;;5086323;28;20024;-64
2022/02/24 13:24:43;;;;;;;8.55;4.93;;;333.70;1126.40;;;;;;5086578;28;20111;-64
2022/02/24 13:27:19;;;;;;;24.05;13.75;;;333.50;1126.40;;;;;;5085988;28;20051;-63
2022/02/24 13:29:50;;;;;;;29.38;19.88;;;333.60;1126.40;;;;;;5076201;28;20179;-68
2022/02/24 13:32:21;;;;;;;19.50;11.68;;;333.70;1126.40;;;;;;5072700;28;20107;-63
2022/02/24 13:34:56;;;;;;;15.40;8.35;;;333.40;1126.40;;;;;;5072643;28;20054;-68
2022/02/24 13:37:33;;;;;;;28.20;15.05;;;333.50;1126.40;;;;;;5072709;28;20028;-64
2022/02/24 13:40:05;;;;;;;10.52;4.80;;;333.40;1126.40;;;;;;5072561;28;20081;-63
2022/02/24 13:42:31;;;;;;;25.17;12.07;;;333.50;1100.80;;;;;;5072745;28;20017;-63
2022/02/24 13:44:56;;;;;;;28.10;17.83;;;333.50;1126.40;;;;;;5072563;28;20054;-67
2022/02/24 13:47:23;;;;;;;13.70;7.28;;;333.60;1126.40;;;;;;5072552;28;20021;-65